Urb Valles de Guayama, Puerto Rico
Current Conditions -  °F | °C
As of 9:56 AM on Saturday 22 Nov 2014 (Local Time) from TJSJ Reporting Station
Light Rain Light Rain  
Wind Chill: 81°   Ceiling: 4000
Heat Index: 88°   Visibility: 10mi
Dew Point: 77°   Wind: 6mph
Humidity: 88%   Direction: 70°ENE
Pressure: 30.04"   Gusts: NA
Location:  17.9849°N, 66.1175°W
Report Text: TJSJ 221356Z 07005KT 10SM -RA FEW018 BKN040 27/25 A3004 RMK AO2 SLP173 P0001 T02720250
Loading
Personal Weather Stations






























Interactive Weather Map New forecast layout! Learn more

10-Day Weather Forecast

Advertisements
Track Severe Weather on mobile